createdAt,value
2022-12-07T00:00:40.639Z,3.1
2022-12-07T00:01:40.680Z,3.1
2022-12-07T00:02:40.652Z,3.1
2022-12-07T00:03:40.684Z,3.1
2022-12-07T00:04:40.697Z,3.1
2022-12-07T00:05:40.808Z,3.1
2022-12-07T00:06:40.878Z,3.1
2022-12-07T00:07:40.935Z,3.1
2022-12-07T00:08:40.913Z,3.1
2022-12-07T00:09:40.822Z,3.1
2022-12-07T00:10:40.881Z,3.1
2022-12-07T00:11:40.973Z,3.1
2022-12-07T00:12:40.676Z,3.2
2022-12-07T00:13:40.548Z,3.1
2022-12-07T00:14:40.692Z,3.1
2022-12-07T00:15:40.590Z,3.1
2022-12-07T00:16:40.773Z,3.1
2022-12-07T00:17:40.584Z,3.2
2022-12-07T00:18:40.602Z,3.2
2022-12-07T00:19:40.605Z,3.2
2022-12-07T00:20:40.546Z,3.2
2022-12-07T00:21:40.575Z,3.2
2022-12-07T00:22:40.639Z,3.2
2022-12-07T00:23:40.577Z,3.2
2022-12-07T00:24:40.595Z,3.2
2022-12-07T00:25:40.658Z,3.2
2022-12-07T00:26:40.657Z,3.2
2022-12-07T00:27:40.600Z,3.2
2022-12-07T00:28:40.578Z,3.2
2022-12-07T00:29:40.571Z,3.2
2022-12-07T00:30:40.543Z,3.2
2022-12-07T00:31:40.700Z,3.2
2022-12-07T00:32:40.584Z,3.2
2022-12-07T00:33:40.601Z,3.2
2022-12-07T00:34:40.598Z,3.2
2022-12-07T00:35:40.550Z,3.2
2022-12-07T00:36:40.645Z,3.2
2022-12-07T00:37:40.635Z,3.2
2022-12-07T00:38:40.636Z,3.2
2022-12-07T00:39:40.554Z,3.2
2022-12-07T00:40:40.586Z,3.2
2022-12-07T00:41:40.880Z,3.2
2022-12-07T00:42:40.560Z,3.2
2022-12-07T00:43:40.561Z,3.2
2022-12-07T00:44:40.538Z,3.3
2022-12-07T00:45:40.649Z,3.3
2022-12-07T00:46:40.549Z,3.3
2022-12-07T00:47:40.674Z,3.3
2022-12-07T00:48:40.698Z,3.3
2022-12-07T00:49:40.604Z,3.3
2022-12-07T00:50:40.608Z,3.3
2022-12-07T00:51:40.541Z,3.3
2022-12-07T00:52:40.630Z,3.3
2022-12-07T00:53:41.844Z,3.3
2022-12-07T00:54:40.660Z,3.3
2022-12-07T00:55:40.651Z,3.3
2022-12-07T00:56:40.659Z,3.3
2022-12-07T00:57:40.568Z,3.3
2022-12-07T00:58:40.652Z,3.3
2022-12-07T00:59:40.546Z,3.3
2022-12-07T01:00:40.559Z,3.3
2022-12-07T01:01:40.687Z,3.3
2022-12-07T01:02:40.577Z,3.3
2022-12-07T01:03:40.756Z,3.3
2022-12-07T01:04:40.579Z,3.3
2022-12-07T01:05:40.577Z,3.3
2022-12-07T01:06:40.563Z,3.3
2022-12-07T01:07:40.598Z,3.3
2022-12-07T01:08:40.635Z,3.3
2022-12-07T01:09:40.627Z,3.3
2022-12-07T01:10:40.541Z,3.3
2022-12-07T01:11:40.610Z,3.3
2022-12-07T01:12:40.629Z,3.3
2022-12-07T01:13:40.659Z,3.3
2022-12-07T01:14:40.559Z,3.3
2022-12-07T01:15:40.553Z,3.3
2022-12-07T01:16:40.668Z,3.3
2022-12-07T01:17:40.568Z,3.3
2022-12-07T01:18:40.543Z,3.3
2022-12-07T01:19:40.696Z,3.3
2022-12-07T01:20:40.588Z,3.4
2022-12-07T01:21:40.556Z,3.4
2022-12-07T01:22:40.615Z,3.4
2022-12-07T01:23:40.626Z,3.4
2022-12-07T01:24:40.547Z,3.4
2022-12-07T01:25:40.585Z,3.4
2022-12-07T01:26:40.561Z,3.4
2022-12-07T01:27:40.667Z,3.4
2022-12-07T01:28:40.639Z,3.4
2022-12-07T01:29:40.572Z,3.4
2022-12-07T01:30:40.602Z,3.3
2022-12-07T01:31:40.691Z,3.4
2022-12-07T01:32:40.544Z,3.4
2022-12-07T01:33:40.550Z,3.4
2022-12-07T01:34:40.601Z,3.4
2022-12-07T01:35:40.583Z,3.4
2022-12-07T01:36:40.556Z,3.4
2022-12-07T01:37:40.599Z,3.4
2022-12-07T01:38:40.637Z,3.4
2022-12-07T01:39:40.608Z,3.4
2022-12-07T01:40:40.633Z,3.4
2022-12-07T01:41:40.641Z,3.4
2022-12-07T01:42:40.659Z,3.4
2022-12-07T01:43:40.578Z,3.4
2022-12-07T01:44:40.559Z,3.4
2022-12-07T01:45:40.529Z,3.4
2022-12-07T01:46:40.659Z,3.4
2022-12-07T01:47:40.536Z,3.4
2022-12-07T01:48:40.531Z,3.4
2022-12-07T01:49:40.530Z,3.4
2022-12-07T01:50:40.692Z,3.4
2022-12-07T01:51:40.633Z,3.4
2022-12-07T01:52:40.600Z,3.4
2022-12-07T01:53:40.727Z,3.4
2022-12-07T01:54:40.546Z,3.4
2022-12-07T01:55:40.612Z,3.4
2022-12-07T01:56:40.602Z,3.4
2022-12-07T01:57:40.587Z,3.4
2022-12-07T01:58:40.636Z,3.4
2022-12-07T01:59:40.580Z,3.4
2022-12-07T02:00:40.645Z,3.4
2022-12-07T02:01:40.617Z,3.4
2022-12-07T02:02:40.620Z,3.4
2022-12-07T02:03:40.568Z,3.4
2022-12-07T02:04:40.672Z,3.4
2022-12-07T02:05:40.730Z,3.4
2022-12-07T02:06:40.792Z,3.4
2022-12-07T02:07:40.898Z,3.4
2022-12-07T02:08:40.590Z,3.4
2022-12-07T02:09:40.945Z,3.4
2022-12-07T02:10:40.536Z,3.4
2022-12-07T02:11:40.628Z,3.4
2022-12-07T02:12:40.585Z,3.4
2022-12-07T02:13:40.640Z,3.4
2022-12-07T02:14:40.636Z,3.4
2022-12-07T02:15:40.661Z,3.4
2022-12-07T02:16:40.680Z,3.4
2022-12-07T02:17:40.546Z,3.4
2022-12-07T02:18:40.574Z,3.5
2022-12-07T02:19:40.527Z,3.4
2022-12-07T02:20:40.539Z,3.4
2022-12-07T02:21:40.600Z,3.4
2022-12-07T02:22:40.689Z,3.4
2022-12-07T02:23:40.612Z,3.4
2022-12-07T02:24:40.529Z,3.4
2022-12-07T02:25:40.541Z,3.4
2022-12-07T02:26:40.601Z,3.4
2022-12-07T02:27:40.576Z,3.5
2022-12-07T02:28:40.530Z,3.4
2022-12-07T02:29:40.527Z,3.4
2022-12-07T02:30:40.718Z,3.4
2022-12-07T02:31:40.652Z,3.5
2022-12-07T02:32:40.682Z,3.5
2022-12-07T02:33:40.547Z,3.5
2022-12-07T02:34:40.565Z,3.5
2022-12-07T02:35:40.581Z,3.5
2022-12-07T02:36:40.585Z,3.5
2022-12-07T02:37:40.707Z,3.5
2022-12-07T02:38:40.586Z,3.5
2022-12-07T02:39:40.521Z,3.5
2022-12-07T02:40:40.605Z,3.5
2022-12-07T02:41:40.566Z,3.5
2022-12-07T02:42:40.550Z,3.5
2022-12-07T02:43:40.908Z,3.5
2022-12-07T02:44:40.531Z,3.5
2022-12-07T02:45:40.637Z,3.5
2022-12-07T02:46:40.730Z,3.5
2022-12-07T02:47:40.537Z,3.5
2022-12-07T02:48:40.543Z,3.5
2022-12-07T02:49:40.527Z,3.5
2022-12-07T02:50:40.588Z,3.5
2022-12-07T02:51:40.689Z,3.5
2022-12-07T02:52:40.577Z,3.5
2022-12-07T02:53:40.587Z,3.5
2022-12-07T02:54:40.575Z,3.5
2022-12-07T02:55:40.529Z,3.5
2022-12-07T02:56:40.535Z,3.5
2022-12-07T02:57:40.568Z,3.5
2022-12-07T02:58:40.653Z,3.4
2022-12-07T02:59:40.554Z,3.4
2022-12-07T03:00:40.630Z,3.4
2022-12-07T03:01:40.714Z,3.4
2022-12-07T03:02:40.710Z,3.5
2022-12-07T03:03:40.545Z,3.5
2022-12-07T03:04:40.661Z,3.5
2022-12-07T03:05:40.546Z,3.5
2022-12-07T03:06:40.538Z,3.5
2022-12-07T03:07:40.636Z,3.4
2022-12-07T03:08:40.519Z,3.5
2022-12-07T03:09:40.568Z,3.5
2022-12-07T03:10:40.694Z,3.4
2022-12-07T03:11:40.613Z,3.4
2022-12-07T03:12:40.643Z,3.4
2022-12-07T03:13:40.604Z,3.4
2022-12-07T03:14:40.525Z,3.5
2022-12-07T03:15:40.690Z,3.5
2022-12-07T03:16:40.665Z,3.5
2022-12-07T03:17:40.629Z,3.5
2022-12-07T03:18:40.532Z,3.5
2022-12-07T03:19:40.520Z,3.5
2022-12-07T03:20:40.525Z,3.5
2022-12-07T03:21:40.567Z,3.5
2022-12-07T03:22:40.562Z,3.5
2022-12-07T03:23:40.561Z,3.5
2022-12-07T03:24:40.676Z,3.5
2022-12-07T03:25:40.582Z,3.5
2022-12-07T03:26:40.602Z,3.5
2022-12-07T03:27:40.626Z,3.5
2022-12-07T03:28:40.532Z,3.4
2022-12-07T03:29:40.633Z,3.4
2022-12-07T03:30:40.568Z,3.5
2022-12-07T03:31:40.660Z,3.4
2022-12-07T03:32:40.603Z,3.4
2022-12-07T03:33:40.571Z,3.4
2022-12-07T03:34:40.522Z,3.4
2022-12-07T03:35:40.587Z,3.4
2022-12-07T03:36:40.542Z,3.4
2022-12-07T03:37:40.516Z,3.4
2022-12-07T03:38:40.523Z,3.4
2022-12-07T03:39:40.567Z,3.4
2022-12-07T03:40:40.684Z,3.4
2022-12-07T03:41:44.913Z,3.4
2022-12-07T03:42:40.544Z,3.5
2022-12-07T03:43:40.542Z,3.5
2022-12-07T03:44:40.614Z,3.5
2022-12-07T03:45:40.547Z,3.5
2022-12-07T03:46:40.663Z,3.4
2022-12-07T03:47:40.628Z,3.4
2022-12-07T03:48:40.589Z,3.4
2022-12-07T03:49:40.556Z,3.4
2022-12-07T03:50:40.547Z,3.4
2022-12-07T03:51:40.561Z,3.4
2022-12-07T03:52:40.559Z,3.4
2022-12-07T03:53:40.565Z,3.4
2022-12-07T03:54:40.557Z,3.4
2022-12-07T03:55:40.570Z,3.4
2022-12-07T03:56:40.586Z,3.4
2022-12-07T03:57:40.591Z,3.4
2022-12-07T03:58:40.523Z,3.4
2022-12-07T03:59:40.592Z,3.4
2022-12-07T04:00:40.559Z,3.3
2022-12-07T04:01:40.659Z,3.4
2022-12-07T04:02:40.697Z,3.3
2022-12-07T04:03:40.513Z,3.3
2022-12-07T04:04:40.568Z,3.3
2022-12-07T04:05:40.586Z,3.3
2022-12-07T04:06:40.530Z,3.3
2022-12-07T04:07:40.568Z,3.3
2022-12-07T04:08:40.582Z,3.3
2022-12-07T04:09:40.547Z,3.3
2022-12-07T04:10:40.565Z,3.3
2022-12-07T04:11:40.573Z,3.3
2022-12-07T04:12:40.575Z,3.3
2022-12-07T04:13:40.574Z,3.3
2022-12-07T04:14:40.591Z,3.3
2022-12-07T04:15:40.701Z,3.3
2022-12-07T04:16:44.486Z,3.3
2022-12-07T04:17:40.500Z,3.3
2022-12-07T04:18:40.618Z,3.3
2022-12-07T04:19:40.596Z,3.3
2022-12-07T04:20:40.562Z,3.3
2022-12-07T04:21:40.528Z,3.3
2022-12-07T04:22:40.535Z,3.3
2022-12-07T04:23:40.545Z,3.3
2022-12-07T04:24:40.531Z,3.3
2022-12-07T04:25:40.826Z,3.3
2022-12-07T04:26:40.581Z,3.3
2022-12-07T04:27:40.700Z,3.3
2022-12-07T04:28:40.715Z,3.3
2022-12-07T04:29:40.528Z,3.3
2022-12-07T04:30:40.512Z,3.3
2022-12-07T04:31:40.695Z,3.3
2022-12-07T04:32:40.601Z,3.3
2022-12-07T04:33:40.612Z,3.3
2022-12-07T04:34:40.528Z,3.3
2022-12-07T04:35:40.620Z,3.3
2022-12-07T04:36:40.651Z,3.3
2022-12-07T04:37:40.511Z,3.3
2022-12-07T04:38:40.546Z,3.3
2022-12-07T04:39:40.547Z,3.3
2022-12-07T04:40:40.513Z,3.3
2022-12-07T04:41:40.553Z,3.3
2022-12-07T04:42:40.561Z,3.3
2022-12-07T04:43:40.566Z,3.3
2022-12-07T04:44:40.560Z,3.3
2022-12-07T04:45:40.511Z,3.3
2022-12-07T04:46:40.604Z,3.3
2022-12-07T04:47:40.516Z,3.3
2022-12-07T04:48:40.541Z,3.3
2022-12-07T04:49:40.510Z,3.3
2022-12-07T04:50:45.852Z,3.3
2022-12-07T04:51:40.598Z,3.3
2022-12-07T04:52:40.496Z,3.3
2022-12-07T04:53:40.549Z,3.3
2022-12-07T04:54:40.546Z,3.3
2022-12-07T04:55:40.600Z,3.3
2022-12-07T04:56:40.558Z,3.3
2022-12-07T04:57:40.587Z,3.3
2022-12-07T04:58:40.519Z,3.3
2022-12-07T04:59:45.253Z,3.3
2022-12-07T05:00:40.572Z,3.4
2022-12-07T05:01:40.633Z,3.4
2022-12-07T05:02:40.534Z,3.4
2022-12-07T05:03:40.513Z,3.4
2022-12-07T05:04:40.876Z,3.4
2022-12-07T05:05:40.515Z,3.3
2022-12-07T05:06:40.591Z,3.3
2022-12-07T05:07:40.666Z,3.3
2022-12-07T05:08:40.537Z,3.3
2022-12-07T05:09:40.530Z,3.3
2022-12-07T05:10:40.546Z,3.3
2022-12-07T05:11:40.656Z,3.3
2022-12-07T05:12:40.579Z,3.3
2022-12-07T05:13:40.523Z,3.3
2022-12-07T05:14:40.664Z,3.3
2022-12-07T05:15:40.551Z,3.3
2022-12-07T05:16:40.706Z,3.2
2022-12-07T05:17:40.574Z,3.2
2022-12-07T05:18:40.506Z,3.2
2022-12-07T05:19:40.501Z,3.2
2022-12-07T05:20:42.683Z,3.2
2022-12-07T05:21:40.545Z,3.3
2022-12-07T05:22:40.558Z,3.3
2022-12-07T05:23:40.614Z,3.3
2022-12-07T05:24:40.496Z,3.3
2022-12-07T05:25:40.645Z,3.3
2022-12-07T05:26:40.567Z,3.3
2022-12-07T05:27:40.537Z,3.4
2022-12-07T05:28:40.546Z,3.4
2022-12-07T05:29:40.516Z,3.4
2022-12-07T05:30:40.564Z,3.4
2022-12-07T05:31:40.611Z,3.4
2022-12-07T05:32:40.513Z,3.4
2022-12-07T05:33:40.532Z,3.4
2022-12-07T05:34:40.569Z,3.3
2022-12-07T05:35:40.618Z,3.4
2022-12-07T05:36:40.684Z,3.4
2022-12-07T05:37:40.614Z,3.4
2022-12-07T05:38:40.623Z,3.3
2022-12-07T05:39:40.620Z,3.3
2022-12-07T05:40:40.541Z,3.3
2022-12-07T05:41:40.560Z,3.3
2022-12-07T05:42:40.559Z,3.3
2022-12-07T05:43:40.503Z,3.3
2022-12-07T05:44:40.580Z,3.3
2022-12-07T05:45:40.625Z,3.3
2022-12-07T05:46:40.578Z,3.3
2022-12-07T05:47:40.549Z,3.3
2022-12-07T05:48:40.517Z,3.3
2022-12-07T05:49:40.497Z,3.3
2022-12-07T05:50:40.594Z,3.3
2022-12-07T05:51:40.628Z,3.3
2022-12-07T05:52:40.597Z,3.4
2022-12-07T05:53:40.512Z,3.4
2022-12-07T05:54:40.553Z,3.3
2022-12-07T05:55:40.495Z,3.3
2022-12-07T05:56:40.533Z,3.3
2022-12-07T05:57:40.536Z,3.3
2022-12-07T05:58:40.515Z,3.3
2022-12-07T05:59:40.504Z,3.3
2022-12-07T06:00:40.520Z,3.3
2022-12-07T06:01:40.591Z,3.3
2022-12-07T06:02:40.660Z,3.3
2022-12-07T06:03:40.505Z,3.3
2022-12-07T06:04:40.535Z,3.3
2022-12-07T06:05:40.504Z,3.3
2022-12-07T06:06:40.649Z,3.3
2022-12-07T06:07:40.617Z,3.2
2022-12-07T06:08:40.519Z,3.2
2022-12-07T06:09:40.525Z,3.2
2022-12-07T06:10:40.613Z,3.2
2022-12-07T06:11:40.511Z,3.2
2022-12-07T06:12:40.543Z,3.2
2022-12-07T06:13:46.856Z,3.3
2022-12-07T06:14:40.538Z,3.3
2022-12-07T06:15:40.542Z,3.2
2022-12-07T06:16:40.601Z,3.2
2022-12-07T06:17:40.686Z,3.2
2022-12-07T06:18:40.561Z,3.2
2022-12-07T06:19:40.506Z,3.2
2022-12-07T06:20:40.584Z,3.2
2022-12-07T06:21:40.540Z,3.2
2022-12-07T06:22:40.614Z,3.2
2022-12-07T06:23:40.558Z,3.2
2022-12-07T06:24:40.533Z,3.2
2022-12-07T06:25:40.635Z,3.2
2022-12-07T06:26:40.572Z,3.2
2022-12-07T06:27:40.528Z,3.2
2022-12-07T06:28:40.500Z,3.2
2022-12-07T06:29:40.526Z,3.2
2022-12-07T06:30:40.506Z,3.2
2022-12-07T06:31:40.778Z,3.2
2022-12-07T06:32:40.511Z,3.2
2022-12-07T06:33:40.543Z,3.2
2022-12-07T06:34:40.563Z,3.2
2022-12-07T06:35:40.532Z,3.2
2022-12-07T06:36:40.526Z,3.2
2022-12-07T06:37:40.523Z,3.2
2022-12-07T06:38:40.510Z,3.2
2022-12-07T06:39:40.485Z,3.2
2022-12-07T06:40:40.501Z,3.2
2022-12-07T06:41:40.568Z,3.2
2022-12-07T06:42:40.532Z,3.2
2022-12-07T06:43:40.503Z,3.1
2022-12-07T06:44:40.527Z,3.1
2022-12-07T06:45:40.689Z,3.1
2022-12-07T06:46:40.558Z,3.1
2022-12-07T06:47:41.688Z,3.2
2022-12-07T06:48:40.553Z,3.1
2022-12-07T06:49:40.532Z,3.1
2022-12-07T06:50:40.494Z,3.1
2022-12-07T06:51:40.510Z,3
2022-12-07T06:52:40.501Z,3
2022-12-07T06:53:40.502Z,3
2022-12-07T06:54:40.497Z,3
2022-12-07T06:55:40.506Z,3
2022-12-07T06:56:40.614Z,3
2022-12-07T06:57:40.583Z,3
2022-12-07T06:58:40.494Z,3
2022-12-07T06:59:40.530Z,3.1
2022-12-07T07:00:40.532Z,3
2022-12-07T07:01:40.597Z,3
2022-12-07T07:02:40.638Z,3
2022-12-07T07:03:40.498Z,3
2022-12-07T07:04:40.552Z,3
2022-12-07T07:05:40.529Z,3
2022-12-07T07:06:40.617Z,3.1
2022-12-07T07:07:58.230Z,3.1
2022-12-07T07:08:40.608Z,3.1
2022-12-07T07:09:40.583Z,3.1
2022-12-07T07:10:40.490Z,3.1
2022-12-07T07:11:40.522Z,3.1
2022-12-07T07:12:40.555Z,3.1
2022-12-07T07:13:40.618Z,3.1
2022-12-07T07:14:40.493Z,3.1
2022-12-07T07:15:40.488Z,3.1
2022-12-07T07:16:40.612Z,3.1
2022-12-07T07:17:40.497Z,3.1
2022-12-07T07:18:40.552Z,3.1
2022-12-07T07:19:40.544Z,3.1
2022-12-07T07:20:40.563Z,3
2022-12-07T07:21:40.541Z,3.1
2022-12-07T07:22:40.498Z,3.1
2022-12-07T07:23:40.573Z,3.1
2022-12-07T07:24:40.585Z,3.1
2022-12-07T07:25:40.492Z,3.1
2022-12-07T07:26:40.521Z,3.1
2022-12-07T07:27:40.521Z,3.1
2022-12-07T07:28:40.613Z,3.1
2022-12-07T07:29:40.482Z,3.1
2022-12-07T07:30:40.538Z,3
2022-12-07T07:31:40.515Z,3
2022-12-07T07:32:40.508Z,3.1
2022-12-07T07:33:40.528Z,3.1
2022-12-07T07:34:40.487Z,3.1
2022-12-07T07:35:40.540Z,3.1
2022-12-07T07:36:40.536Z,3.1
2022-12-07T07:37:40.512Z,3.1
2022-12-07T07:38:40.483Z,3.1
2022-12-07T07:39:40.488Z,3.1
2022-12-07T07:40:40.492Z,3.1
2022-12-07T07:41:40.508Z,3.1
2022-12-07T07:42:40.499Z,3
2022-12-07T07:43:40.536Z,3
2022-12-07T07:44:40.551Z,3.1
2022-12-07T07:45:40.568Z,3
2022-12-07T07:46:40.598Z,3
2022-12-07T07:47:40.484Z,3
2022-12-07T07:48:40.488Z,3.1
2022-12-07T07:49:44.606Z,3.1
2022-12-07T07:50:40.491Z,3.1
2022-12-07T07:51:40.576Z,3.1
2022-12-07T07:52:40.520Z,3.1
2022-12-07T07:53:40.492Z,3.1
2022-12-07T07:54:40.495Z,3
2022-12-07T07:55:40.501Z,3
2022-12-07T07:56:40.506Z,3
2022-12-07T07:57:40.583Z,3
2022-12-07T07:58:40.490Z,3
2022-12-07T07:59:40.520Z,3
2022-12-07T08:00:40.536Z,3
2022-12-07T08:01:40.531Z,3
2022-12-07T08:02:40.490Z,3
2022-12-07T08:03:40.484Z,3
2022-12-07T08:04:40.514Z,3
2022-12-07T08:05:40.477Z,3
2022-12-07T08:06:40.506Z,3.1
2022-12-07T08:07:40.611Z,3.1
2022-12-07T08:08:40.547Z,3
2022-12-07T08:09:40.477Z,3.1
2022-12-07T08:10:40.494Z,3.1
2022-12-07T08:11:40.590Z,3.1
2022-12-07T08:12:40.506Z,3.1
2022-12-07T08:13:40.503Z,3.1
2022-12-07T08:14:40.499Z,3.1
2022-12-07T08:15:40.583Z,3.1
2022-12-07T08:16:40.619Z,3.2
2022-12-07T08:17:40.488Z,3.2
2022-12-07T08:18:40.488Z,3.2
2022-12-07T08:19:40.535Z,3.2
2022-12-07T08:20:40.479Z,3.2
2022-12-07T08:21:40.492Z,3.1
2022-12-07T08:22:40.557Z,3.1
2022-12-07T08:23:40.545Z,3.2
2022-12-07T08:24:40.476Z,3.2
2022-12-07T08:25:40.573Z,3.2
2022-12-07T08:26:40.592Z,3.3
2022-12-07T08:27:40.603Z,3.3
2022-12-07T08:28:40.581Z,3.2
2022-12-07T08:29:40.485Z,3.3
2022-12-07T08:30:40.684Z,3.3
2022-12-07T08:31:40.796Z,3.3
2022-12-07T08:32:40.496Z,3.3
2022-12-07T08:33:40.523Z,3.3
2022-12-07T08:34:40.527Z,3.3
2022-12-07T08:35:40.474Z,3.4
2022-12-07T08:36:40.540Z,3.4
2022-12-07T08:37:40.475Z,3.5
2022-12-07T08:38:40.527Z,3.5
2022-12-07T08:39:40.600Z,3.6
2022-12-07T08:40:40.558Z,3.6
2022-12-07T08:41:40.569Z,3.7
2022-12-07T08:42:40.589Z,3.7
2022-12-07T08:43:40.582Z,3.7
2022-12-07T08:44:40.579Z,3.6
2022-12-07T08:45:40.473Z,3.6
2022-12-07T08:46:40.600Z,3.6
2022-12-07T08:47:40.599Z,3.5
2022-12-07T08:48:40.501Z,3.4
2022-12-07T08:49:40.607Z,3.4
2022-12-07T08:50:45.909Z,3.4
2022-12-07T08:51:40.480Z,3.4
2022-12-07T08:52:40.531Z,3.4
2022-12-07T08:53:40.473Z,3.4
2022-12-07T08:54:40.520Z,3.4
2022-12-07T08:55:40.466Z,3.4
2022-12-07T08:56:40.488Z,3.4
2022-12-07T08:57:40.489Z,3.4
2022-12-07T08:58:40.497Z,3.4
2022-12-07T08:59:40.482Z,3.4
2022-12-07T09:00:40.470Z,3.4
2022-12-07T09:01:40.574Z,3.5
2022-12-07T09:02:40.515Z,3.5
2022-12-07T09:03:40.472Z,3.5
2022-12-07T09:04:40.513Z,3.5
2022-12-07T09:05:40.587Z,3.5
2022-12-07T09:06:40.649Z,3.5
2022-12-07T09:07:40.499Z,3.5
2022-12-07T09:08:40.480Z,3.6
2022-12-07T09:09:40.525Z,3.6
2022-12-07T09:10:40.552Z,3.7
2022-12-07T09:11:40.479Z,3.7
2022-12-07T09:12:40.584Z,3.7
2022-12-07T09:13:40.476Z,3.8
2022-12-07T09:14:40.569Z,3.7
2022-12-07T09:15:40.662Z,3.7
2022-12-07T09:16:40.726Z,3.7
2022-12-07T09:17:40.518Z,3.7
2022-12-07T09:18:40.509Z,3.7
2022-12-07T09:19:40.479Z,3.7
2022-12-07T09:20:40.478Z,3.6
2022-12-07T09:21:40.479Z,3.6
2022-12-07T09:22:40.469Z,3.5
2022-12-07T09:23:40.533Z,3.5
2022-12-07T09:24:40.462Z,3.6
2022-12-07T09:25:40.598Z,3.6
2022-12-07T09:26:40.532Z,3.6
2022-12-07T09:27:40.564Z,3.7
2022-12-07T09:28:40.563Z,3.7
2022-12-07T09:29:40.466Z,3.7
2022-12-07T09:31:14.478Z,3.7
2022-12-07T09:31:40.556Z,3.7
2022-12-07T09:32:40.456Z,3.8
2022-12-07T09:33:40.502Z,3.8
2022-12-07T09:34:40.656Z,3.8
2022-12-07T09:35:40.491Z,3.8
2022-12-07T09:36:40.521Z,3.7
2022-12-07T09:37:40.468Z,3.8
2022-12-07T09:38:40.507Z,3.8
2022-12-07T09:39:46.122Z,3.7
2022-12-07T09:40:40.472Z,3.7
2022-12-07T09:41:40.543Z,3.7
2022-12-07T09:42:40.806Z,3.7
2022-12-07T09:43:40.559Z,3.7
2022-12-07T09:44:40.456Z,3.7
2022-12-07T09:45:44.439Z,3.7
2022-12-07T09:46:40.536Z,3.7
2022-12-07T09:47:40.475Z,3.7
2022-12-07T09:48:40.476Z,3.7
2022-12-07T09:49:40.519Z,3.7
2022-12-07T09:50:40.453Z,3.6
2022-12-07T09:51:40.501Z,3.6
2022-12-07T09:52:40.446Z,3.6
2022-12-07T09:53:40.451Z,3.6
2022-12-07T09:54:40.450Z,3.6
2022-12-07T09:55:40.497Z,3.5
2022-12-07T09:56:40.490Z,3.5
2022-12-07T09:57:40.517Z,3.6
2022-12-07T09:58:40.450Z,3.6
2022-12-07T09:59:40.449Z,3.6
2022-12-07T10:00:40.548Z,3.5
2022-12-07T10:01:40.633Z,3.6
2022-12-07T10:02:40.557Z,3.6
2022-12-07T10:03:40.476Z,3.6
2022-12-07T10:04:40.572Z,3.6
2022-12-07T10:05:40.493Z,3.6
2022-12-07T10:06:40.453Z,3.6
2022-12-07T10:07:40.642Z,3.6
2022-12-07T10:08:40.455Z,3.7
2022-12-07T10:09:40.573Z,3.7
2022-12-07T10:10:40.508Z,3.6
2022-12-07T10:11:40.456Z,3.7
2022-12-07T10:12:40.552Z,3.7
2022-12-07T10:13:40.525Z,3.7
2022-12-07T10:15:09.548Z,3.7
2022-12-07T10:15:40.520Z,3.8
2022-12-07T10:16:40.631Z,3.8
2022-12-07T10:17:40.552Z,3.7
2022-12-07T10:18:40.491Z,3.8
2022-12-07T10:19:40.456Z,3.7
2022-12-07T10:20:40.583Z,3.7
2022-12-07T10:21:40.610Z,3.8
2022-12-07T10:22:40.457Z,3.8
2022-12-07T10:23:40.496Z,3.8
2022-12-07T10:24:40.620Z,3.8
2022-12-07T10:25:40.686Z,3.9
2022-12-07T10:26:40.686Z,3.9
2022-12-07T10:27:40.541Z,3.8
2022-12-07T10:28:42.477Z,3.8
2022-12-07T10:29:40.451Z,3.8
2022-12-07T10:30:40.545Z,3.8
2022-12-07T10:31:40.612Z,3.8
2022-12-07T10:32:40.562Z,3.8
2022-12-07T10:33:40.469Z,3.9
2022-12-07T10:34:43.408Z,3.9
2022-12-07T10:35:40.475Z,4
2022-12-07T10:36:40.593Z,4.1
2022-12-07T10:37:40.469Z,4.1
2022-12-07T10:38:40.490Z,4.1
2022-12-07T10:39:40.495Z,4.1
2022-12-07T10:40:46.190Z,4.1
2022-12-07T10:41:40.464Z,4.2
2022-12-07T10:42:40.472Z,4.2
2022-12-07T10:43:40.506Z,4.2
2022-12-07T10:44:40.531Z,4.3
2022-12-07T10:45:52.056Z,4.4
2022-12-07T10:46:40.604Z,4.4
2022-12-07T10:47:40.465Z,4.3
2022-12-07T10:48:40.467Z,4.2
2022-12-07T10:49:40.563Z,4.3
2022-12-07T10:50:40.473Z,4.4
2022-12-07T10:51:40.585Z,4.5
2022-12-07T10:52:40.581Z,4.6
2022-12-07T10:53:40.455Z,4.6
2022-12-07T10:54:40.490Z,4.8
2022-12-07T10:55:40.458Z,4.9
2022-12-07T10:56:40.477Z,4.9
2022-12-07T10:57:40.483Z,4.9
2022-12-07T10:58:40.465Z,4.8
2022-12-07T10:59:40.499Z,4.8
2022-12-07T11:00:40.636Z,4.6
2022-12-07T11:01:40.543Z,4.5
2022-12-07T11:02:40.561Z,4.4
2022-12-07T11:03:40.447Z,4.4
2022-12-07T11:04:40.458Z,4.4
2022-12-07T11:05:40.565Z,4.4
2022-12-07T11:06:40.480Z,4.5
2022-12-07T11:07:40.641Z,4.5
2022-12-07T11:08:40.602Z,4.4
2022-12-07T11:10:07.509Z,4.3
2022-12-07T11:10:40.503Z,4.2
2022-12-07T11:11:40.526Z,4.2
2022-12-07T11:12:40.467Z,4.2
2022-12-07T11:13:40.467Z,4.1
2022-12-07T11:14:40.552Z,4.1
2022-12-07T11:15:40.523Z,4.2
2022-12-07T11:16:40.578Z,4.2
2022-12-07T11:17:40.610Z,4.3
2022-12-07T11:18:40.611Z,4.3
2022-12-07T11:19:40.549Z,4.3
2022-12-07T11:20:40.455Z,4.3
2022-12-07T11:21:40.481Z,4.3
2022-12-07T11:22:40.475Z,4.3
2022-12-07T11:23:40.591Z,4.3
2022-12-07T11:24:40.488Z,4.2
2022-12-07T11:25:40.448Z,4.3
2022-12-07T11:26:40.454Z,4.3
2022-12-07T11:27:40.460Z,4.3
2022-12-07T11:28:40.503Z,4.3
2022-12-07T11:29:40.527Z,4.4
2022-12-07T11:30:40.532Z,4.4
2022-12-07T11:31:40.620Z,4.4
2022-12-07T11:32:40.449Z,4.4
2022-12-07T11:33:40.533Z,4.3
2022-12-07T11:34:40.553Z,4.4
2022-12-07T11:35:40.444Z,4.4
2022-12-07T11:36:40.446Z,4.4
2022-12-07T11:38:40.522Z,4.4
2022-12-07T11:39:40.501Z,4.4
2022-12-07T11:40:40.476Z,4.4
2022-12-07T11:41:40.463Z,4.6
2022-12-07T11:42:40.475Z,4.6
2022-12-07T11:43:40.441Z,4.7
2022-12-07T11:44:40.444Z,4.7
2022-12-07T11:45:40.475Z,4.7
2022-12-07T11:46:40.585Z,4.6
2022-12-07T11:47:40.535Z,4.6
2022-12-07T11:48:40.529Z,4.7
2022-12-07T11:49:40.538Z,4.7
2022-12-07T11:50:40.448Z,4.7
2022-12-07T11:51:40.572Z,4.7
2022-12-07T11:52:40.479Z,4.8
2022-12-07T11:53:40.446Z,4.7
2022-12-07T11:54:40.490Z,4.7
2022-12-07T11:55:40.577Z,4.8
2022-12-07T11:56:40.471Z,4.8
2022-12-07T11:57:40.457Z,4.7
2022-12-07T11:58:40.456Z,4.5
2022-12-07T11:59:40.500Z,4.4
2022-12-07T12:00:40.472Z,4.4
2022-12-07T12:01:40.571Z,4.4
2022-12-07T12:02:40.622Z,4.3
2022-12-07T12:03:40.632Z,4.2
2022-12-07T12:04:40.457Z,4.3
2022-12-07T12:05:40.468Z,4.3
2022-12-07T12:06:40.490Z,4.3
2022-12-07T12:09:40.935Z,4.3
2022-12-07T12:10:40.526Z,4.3
2022-12-07T12:11:40.545Z,4.2
2022-12-07T12:14:43.333Z,4.2
2022-12-07T12:15:40.452Z,4.3
2022-12-07T12:16:40.641Z,4.7
2022-12-07T12:17:40.508Z,5
2022-12-07T12:18:40.505Z,5.1
2022-12-07T12:19:40.446Z,5.1
2022-12-07T12:20:40.446Z,5.4
2022-12-07T12:21:40.479Z,5.6
2022-12-07T12:22:40.570Z,5.4
2022-12-07T12:23:40.575Z,5.2
2022-12-07T12:24:40.458Z,4.8
2022-12-07T12:25:40.615Z,4.6
2022-12-07T12:26:40.516Z,4.4
2022-12-07T12:27:40.521Z,4.3
2022-12-07T12:28:43.062Z,4.3
2022-12-07T12:29:40.446Z,4.3
2022-12-07T12:30:40.460Z,4.3
2022-12-07T12:31:40.725Z,4.2
2022-12-07T12:32:40.472Z,4.2
2022-12-07T12:33:40.514Z,4.1
2022-12-07T12:34:44.076Z,4.1
2022-12-07T12:35:40.458Z,4
2022-12-07T12:36:40.617Z,4
2022-12-07T12:37:40.448Z,4
2022-12-07T12:38:40.463Z,3.9
2022-12-07T12:39:40.557Z,3.9
2022-12-07T12:40:43.169Z,3.9
2022-12-07T12:41:40.522Z,3.9
2022-12-07T12:42:40.516Z,3.9
2022-12-07T12:43:40.445Z,3.9
2022-12-07T12:44:40.470Z,3.9
2022-12-07T12:45:40.514Z,3.9
2022-12-07T12:46:43.900Z,3.9
2022-12-07T12:47:40.540Z,3.9
2022-12-07T12:48:40.446Z,3.9
2022-12-07T12:49:40.499Z,3.8
2022-12-07T12:50:40.484Z,3.9
2022-12-07T12:51:40.472Z,3.9
2022-12-07T12:52:43.388Z,4
2022-12-07T12:53:40.439Z,4.2
2022-12-07T12:54:40.461Z,4.2
2022-12-07T12:55:40.463Z,4.1
2022-12-07T12:56:40.490Z,4.1
2022-12-07T12:57:40.502Z,4
2022-12-07T12:58:40.444Z,4
2022-12-07T12:59:40.436Z,4
2022-12-07T13:00:40.443Z,4
2022-12-07T13:01:40.512Z,3.9
2022-12-07T13:02:40.528Z,3.9
2022-12-07T13:03:40.457Z,3.9
2022-12-07T13:04:40.523Z,3.9
2022-12-07T13:05:40.477Z,3.9
2022-12-07T13:06:40.549Z,3.9
2022-12-07T13:07:40.544Z,3.9
2022-12-07T13:08:40.481Z,3.9
2022-12-07T13:09:40.435Z,3.8
2022-12-07T13:10:40.452Z,3.8
2022-12-07T13:11:40.457Z,3.8
2022-12-07T13:12:40.501Z,3.8
2022-12-07T13:13:40.473Z,3.8
2022-12-07T13:14:40.444Z,3.8
2022-12-07T13:15:40.440Z,3.8
2022-12-07T13:16:40.498Z,3.7
2022-12-07T13:17:40.435Z,3.7
2022-12-07T13:18:40.529Z,3.8
2022-12-07T13:19:40.427Z,3.8
2022-12-07T13:20:40.477Z,3.8
2022-12-07T13:21:40.490Z,3.8
2022-12-07T13:22:40.499Z,3.8
2022-12-07T13:23:40.527Z,3.9
2022-12-07T13:24:40.437Z,4.1
2022-12-07T13:25:40.557Z,4.2
2022-12-07T13:26:40.605Z,4.2
2022-12-07T13:27:40.668Z,4.2
2022-12-07T13:28:40.484Z,4.1
2022-12-07T13:29:40.446Z,4.1
2022-12-07T13:30:40.788Z,4.1
2022-12-07T13:31:40.526Z,4.1
2022-12-07T13:32:40.525Z,4
2022-12-07T13:33:40.563Z,4
2022-12-07T13:34:40.583Z,4
2022-12-07T13:35:40.443Z,4
2022-12-07T13:36:40.662Z,4.1
2022-12-07T13:37:40.431Z,4
2022-12-07T13:38:40.426Z,4.1
2022-12-07T13:39:40.433Z,4.1
2022-12-07T13:40:40.424Z,4.1
2022-12-07T13:41:40.443Z,4.2
2022-12-07T13:42:40.484Z,4.2
2022-12-07T13:43:40.456Z,4.2
2022-12-07T13:44:42.403Z,4.3
2022-12-07T13:45:40.489Z,4.3
2022-12-07T13:46:40.497Z,4.3
2022-12-07T13:47:40.424Z,4.3
2022-12-07T13:48:40.418Z,4.2
2022-12-07T13:49:40.457Z,4.2
2022-12-07T13:50:40.437Z,4.2
2022-12-07T13:51:40.545Z,4.2
2022-12-07T13:52:40.521Z,4.3
2022-12-07T13:53:40.516Z,4.2
2022-12-07T13:54:40.431Z,4.2